createdAt,value
2023-02-06T14:30:10.900Z,2.30
2023-02-06T14:33:50.530Z,2.72
2023-02-06T14:37:21.250Z,3.35
2023-02-06T14:40:27.156Z,2.78
2023-02-06T14:43:30.713Z,2.67
2023-02-06T14:46:32.561Z,2.65
2023-02-06T14:52:37.184Z,2.30
2023-02-06T14:55:40.678Z,2.67
2023-02-06T14:58:46.302Z,2.65
2023-02-06T15:01:50.106Z,2.83
2023-02-06T15:04:52.324Z,2.80
2023-02-06T15:08:02.478Z,3.47
2023-02-06T15:11:06.921Z,3.38
2023-02-06T15:14:20.765Z,3.30
2023-02-06T15:17:24.094Z,3.08
2023-02-06T15:20:30.234Z,3.60
2023-02-06T15:23:41.279Z,3.40
2023-02-06T15:26:52.236Z,3.45
2023-02-06T15:29:54.231Z,3.22
2023-02-06T15:32:56.292Z,3.13
2023-02-06T15:35:59.546Z,3.45
2023-02-06T15:39:01.764Z,3.33
2023-02-06T15:42:03.720Z,3.75
2023-02-06T15:48:17.430Z,3.33
2023-02-06T15:51:23.720Z,3.63
2023-02-06T15:54:27.190Z,3.85
2023-02-06T15:57:40.624Z,3.75
2023-02-06T16:00:42.493Z,5.18
2023-02-06T16:03:44.357Z,4.47
2023-02-06T16:06:46.720Z,4.38
2023-02-06T16:13:17.374Z,5.13
2023-02-06T16:16:21.692Z,5.20
2023-02-06T16:19:39.598Z,5.03
2023-02-06T16:22:41.565Z,5.68
2023-02-06T16:25:43.511Z,5.63
2023-02-06T16:28:58.147Z,5.55
2023-02-06T16:32:12.451Z,4.93
2023-02-06T16:35:14.362Z,5.30
2023-02-06T16:38:16.242Z,4.93
2023-02-06T16:41:48.600Z,4.93
2023-02-06T16:44:55.108Z,5.40
2023-02-06T16:47:56.988Z,5.03
2023-02-06T16:50:58.810Z,5.50
2023-02-06T16:54:00.721Z,4.68
2023-02-06T16:57:09.584Z,5.15
2023-02-06T17:00:20.327Z,5.47
2023-02-06T17:03:22.166Z,5.60
2023-02-06T17:06:28.372Z,4.32
2023-02-06T17:09:30.249Z,3.88
2023-02-06T17:12:32.139Z,3.77
2023-02-06T17:15:33.977Z,3.50
2023-02-06T17:18:35.925Z,4.60
2023-02-06T17:21:38.233Z,3.78
2023-02-06T17:24:40.767Z,3.72
2023-02-06T17:27:42.668Z,3.83
2023-02-06T17:30:44.823Z,3.35
2023-02-06T17:33:46.807Z,4.20
2023-02-06T17:36:48.796Z,4.30
2023-02-06T17:39:51.048Z,3.92
2023-02-06T17:42:54.093Z,4.35
2023-02-06T17:45:56.081Z,3.55
2023-02-06T17:48:57.998Z,4.10
2023-02-06T17:51:59.879Z,3.90
2023-02-06T17:55:01.775Z,4.13
2023-02-06T17:58:04.133Z,4.88
2023-02-06T18:01:14.145Z,5.22
2023-02-06T18:04:19.642Z,4.53
2023-02-06T18:07:21.708Z,4.40
2023-02-06T18:10:24.576Z,4.70
2023-02-06T18:13:28.317Z,5.18
2023-02-06T18:16:30.783Z,5.32
2023-02-06T18:19:40.646Z,4.57
2023-02-06T18:22:43.075Z,5.57
2023-02-06T18:25:45.064Z,15.40
2023-02-06T18:28:46.914Z,10.65
2023-02-06T18:31:48.750Z,7.30
2023-02-06T18:34:50.700Z,5.78
2023-02-06T18:37:53.026Z,5.47
2023-02-06T18:40:55.289Z,8.82
2023-02-06T18:44:00.640Z,9.63
2023-02-06T18:47:02.495Z,9.25
2023-02-06T18:50:04.667Z,9.67
2023-02-06T18:53:07.035Z,10.93
2023-02-06T18:56:09.114Z,7.43
2023-02-06T18:59:10.950Z,6.72
2023-02-06T19:02:12.903Z,10.13
2023-02-06T19:05:15.064Z,10.50
2023-02-06T19:08:16.914Z,12.05
2023-02-06T19:11:21.759Z,13.87
2023-02-06T19:14:25.383Z,11.65
2023-02-06T19:17:27.428Z,10.95
2023-02-06T19:20:29.837Z,8.98
2023-02-06T19:23:32.119Z,8.00
2023-02-06T19:26:34.412Z,8.43
2023-02-06T19:29:36.752Z,29.05
2023-02-06T19:32:38.616Z,13.23
2023-02-06T19:35:41.306Z,11.20
2023-02-06T19:38:43.355Z,9.40
2023-02-06T19:41:45.684Z,10.27
2023-02-06T19:44:50.911Z,8.52
2023-02-06T19:47:53.652Z,9.38
2023-02-06T19:53:58.054Z,9.40
2023-02-06T19:57:00.773Z,8.98
2023-02-06T20:00:04.665Z,8.23
2023-02-06T20:03:07.130Z,8.93
2023-02-06T20:06:11.564Z,9.85
2023-02-06T20:09:14.263Z,9.80
2023-02-06T20:12:16.147Z,9.00
2023-02-06T20:15:18.237Z,7.80
2023-02-06T20:18:20.141Z,7.40
2023-02-06T20:21:24.214Z,9.03
2023-02-06T20:24:28.016Z,9.70
2023-02-06T20:27:29.994Z,7.82
2023-02-06T20:30:32.312Z,17.77
2023-02-06T20:33:38.293Z,11.32
2023-02-06T20:36:41.881Z,12.15
2023-02-06T20:39:43.955Z,12.18
2023-02-06T20:42:45.898Z,10.10
2023-02-06T20:45:47.769Z,10.87
2023-02-06T20:48:54.655Z,10.53
2023-02-06T20:51:56.838Z,9.23
2023-02-06T20:54:58.724Z,11.10
2023-02-06T20:58:00.600Z,10.03
2023-02-06T21:01:02.547Z,9.15
2023-02-06T21:04:05.806Z,11.05
2023-02-06T21:07:07.798Z,6.55
2023-02-06T21:10:09.933Z,6.03
2023-02-06T21:13:11.809Z,7.18
2023-02-06T21:16:13.770Z,5.73
2023-02-06T21:19:16.765Z,6.10
2023-02-06T21:22:18.734Z,6.47
2023-02-06T21:25:21.545Z,5.93
2023-02-06T21:31:34.134Z,5.03
